Time;durP1;ratioP1;P1;durP2;ratioP2;P2;SDS_P1;SDS_P2;PMS_P1;PMS_P2;Temp;Humidity;BMP_temperature;BMP_pressure;BME280_temperature;BME280_humidity;BME280_pressure;Samples;Min_cycle;Max_cycle;Signal;HPM_P1;HPM_P2
2021/12/17 00:04:50;;;;;;;15.43;10.48;;;;;;;5.16;100.00;99779.02;1826326;78;21520;-75
2021/12/17 00:06:59;;;;;;;12.60;8.63;;;;;;;5.13;100.00;99767.42;1822428;78;22165;-75
2021/12/17 00:09:28;;;;;;;10.28;8.73;;;;;;;5.10;100.00;99766.53;1825912;78;21459;-73
2021/12/17 00:11:54;;;;;;;14.53;9.33;;;;;;;5.09;100.00;99762.22;1825430;78;21441;-74
2021/12/17 00:14:29;;;;;;;15.78;10.13;;;;;;;5.09;100.00;99763.55;1813104;77;21058;-77
2021/12/17 00:16:58;;;;;;;13.45;9.70;;;;;;;5.13;100.00;99761.31;1800058;79;21527;-81
2021/12/17 00:19:46;;;;;;;13.85;9.45;;;;;;;5.15;100.00;99764.05;1805661;78;21111;-70
2021/12/17 00:49:05;;;;;;;11.53;8.63;;;;;;;4.95;100.00;99767.82;1800804;79;20946;-76
2021/12/17 00:54:28;;;;;;;13.03;9.63;;;;;;;4.98;100.00;99762.09;1815962;78;21042;-73
2021/12/17 00:56:52;;;;;;;8.80;7.05;;;;;;;4.95;100.00;99760.65;1806491;79;21249;-74
2021/12/17 00:59:19;;;;;;;12.58;7.35;;;;;;;4.92;100.00;99762.92;1843568;77;21524;-78
2021/12/17 01:01:46;;;;;;;11.55;7.83;;;;;;;4.89;100.00;99758.03;1835426;77;21050;-77
2021/12/17 01:04:12;;;;;;;13.40;8.60;;;;;;;4.84;100.00;99762.13;1781075;79;20999;-80
2021/12/17 01:06:40;;;;;;;14.05;8.88;;;;;;;4.85;100.00;99745.62;1825599;78;20984;-79
2021/12/17 01:09:08;;;;;;;10.70;8.20;;;;;;;4.86;100.00;99749.92;1777757;79;20975;-80
2021/12/17 01:11:36;;;;;;;13.05;9.98;;;;;;;4.84;100.00;99744.80;1813579;78;21454;-80
2021/12/17 01:14:13;;;;;;;10.88;7.03;;;;;;;4.82;100.00;99744.21;1781151;78;21006;-85
2021/12/17 01:16:59;;;;;;;7.17;6.33;;;;;;;4.80;100.00;99741.44;1831928;78;20994;-76
2021/12/17 01:22:47;;;;;;;10.25;6.53;;;;;;;4.78;100.00;99730.19;1816016;78;20975;-74
2021/12/17 01:25:11;;;;;;;7.10;6.15;;;;;;;4.80;100.00;99730.78;1795092;79;21132;-74
2021/12/17 01:35:59;;;;;;;9.53;6.55;;;;;;;4.80;100.00;99729.45;1772947;79;20952;-82
2021/12/17 01:42:12;;;;;;;6.53;5.28;;;;;;;4.78;100.00;99728.35;1802830;78;21019;-76
2021/12/17 01:43:51;;;;;;;10.35;5.33;;;;;;;4.78;100.00;99724.36;1814973;78;20948;-86
2021/12/17 01:46:27;;;;;;;4.80;4.30;;;;;;;4.80;100.00;99718.28;1782694;79;23207;-75
2021/12/17 01:49:21;;;;;;;6.83;4.87;;;;;;;4.80;100.00;99717.46;1761568;81;26857;-75
2021/12/17 01:59:37;;;;;;;5.37;4.20;;;;;;;4.77;100.00;99707.23;1729604;80;20989;-76
2021/12/17 02:02:04;;;;;;;7.90;4.92;;;;;;;4.75;100.00;99702.11;1787882;79;21535;-75
2021/12/17 02:04:33;;;;;;;5.60;4.33;;;;;;;4.75;100.00;99711.95;1743881;82;21018;-73
2021/12/17 02:07:00;;;;;;;4.87;3.85;;;;;;;4.73;100.00;99720.69;1719492;82;21590;-79
2021/12/17 02:29:01;;;;;;;4.25;2.72;;;;;;;4.59;100.00;99701.78;1793761;79;21509;-80
2021/12/17 02:33:53;;;;;;;3.22;2.80;;;;;;;4.59;100.00;99696.45;1774046;79;21508;-76
2021/12/17 02:36:24;;;;;;;6.97;3.80;;;;;;;4.59;100.00;99692.46;1797912;79;21056;-85
2021/12/17 02:38:48;;;;;;;6.80;3.02;;;;;;;4.58;100.00;99696.97;1752003;79;21000;-78
2021/12/17 02:46:54;;;;;;;3.35;2.35;;;;;;;4.52;100.00;99687.66;1759311;81;21298;-81
2021/12/17 02:49:22;;;;;;;3.00;2.75;;;;;;;4.52;100.00;99691.66;1770260;81;22199;-79
2021/12/17 02:51:49;;;;;;;5.55;2.70;;;;;;;4.51;100.00;99684.72;1751008;81;21504;-80
2021/12/17 02:54:16;;;;;;;4.37;2.33;;;;;;;4.49;100.00;99694.23;1794640;79;21475;-78
2021/12/17 02:56:42;;;;;;;3.50;2.47;;;;;;;4.49;100.00;99686.77;1800101;79;21551;-81
2021/12/17 02:59:13;;;;;;;7.25;2.35;;;;;;;4.44;100.00;99686.57;1800172;79;21665;-83
2021/12/17 03:01:37;;;;;;;2.37;2.00;;;;;;;4.42;100.00;99685.44;1759862;81;20978;-81
2021/12/17 03:04:03;;;;;;;3.80;2.40;;;;;;;4.41;100.00;99687.00;1757608;80;21022;-79
2021/12/17 03:06:31;;;;;;;3.98;2.60;;;;;;;4.38;100.00;99694.88;1786619;80;20970;-81
2021/12/17 03:08:59;;;;;;;2.30;2.10;;;;;;;4.36;100.00;99687.09;1763897;80;21062;-81
2021/12/17 03:11:26;;;;;;;3.85;1.95;;;;;;;4.36;100.00;99695.08;1771982;80;21163;-80
2021/12/17 03:13:53;;;;;;;2.92;1.95;;;;;;;4.34;100.00;99686.50;1769926;80;20970;-81
2021/12/17 03:16:28;;;;;;;3.10;2.30;;;;;;;4.33;100.00;99682.71;1770103;80;21034;-84
2021/12/17 03:19:00;;;;;;;3.90;2.00;;;;;;;4.32;100.00;99687.72;1782091;80;20963;-78
2021/12/17 03:24:05;;;;;;;4.50;3.25;;;;;;;4.28;100.00;99697.16;1772975;80;21045;-79
2021/12/17 03:26:34;;;;;;;2.47;2.05;;;;;;;4.26;100.00;99680.59;1780835;80;21101;-82
2021/12/17 03:29:08;;;;;;;2.40;2.20;;;;;;;4.26;100.00;99685.41;1742867;80;21004;-85
2021/12/17 03:31:38;;;;;;;3.52;2.20;;;;;;;4.27;100.00;99699.00;1776373;80;21031;-81
2021/12/17 03:34:18;;;;;;;1.92;1.82;;;;;;;4.26;100.00;99685.92;1790729;80;21064;-85
2021/12/17 03:36:48;;;;;;;1.52;1.42;;;;;;;4.26;100.00;99680.59;1786620;80;20929;-82
2021/12/17 03:39:16;;;;;;;3.25;1.77;;;;;;;4.24;100.00;99681.30;1786448;80;21047;-81
2021/12/17 03:41:49;;;;;;;2.52;1.95;;;;;;;4.21;100.00;99678.56;1778413;80;21513;-81
2021/12/17 03:44:10;;;;;;;1.95;1.75;;;;;;;4.21;100.00;99669.76;1702384;82;21026;-80
2021/12/17 03:46:55;;;;;;;3.02;2.00;;;;;;;4.20;100.00;99674.26;1747201;80;21069;-81
2021/12/17 03:49:23;;;;;;;1.62;1.52;;;;;;;4.21;100.00;99670.58;1790160;80;21577;-79
2021/12/17 03:52:04;;;;;;;4.05;2.75;;;;;;;4.20;100.00;99670.27;1780136;80;20979;-80
2021/12/17 03:54:19;;;;;;;3.45;2.17;;;;;;;4.19;100.00;99673.95;1769115;80;21456;-78
2021/12/17 03:56:47;;;;;;;1.85;1.75;;;;;;;4.14;100.00;99663.62;1785351;80;21595;-80
2021/12/17 03:59:13;;;;;;;2.72;2.20;;;;;;;4.10;100.00;99658.41;1786832;80;21494;-80
2021/12/17 04:01:40;;;;;;;2.37;2.17;;;;;;;4.07;100.00;99668.98;1784034;80;20994;-79
2021/12/17 04:04:06;;;;;;;2.87;1.90;;;;;;;4.07;100.00;99669.48;1764193;80;21038;-80
2021/12/17 04:06:34;;;;;;;2.33;2.12;;;;;;;4.08;100.00;99665.77;1786505;80;20931;-81
2021/12/17 04:09:04;;;;;;;2.42;2.22;;;;;;;4.08;100.00;99661.78;1783831;80;20999;-79
2021/12/17 04:11:38;;;;;;;3.87;1.90;;;;;;;4.09;100.00;99662.91;1765784;80;21163;-80
2021/12/17 04:14:13;;;;;;;2.27;2.17;;;;;;;4.02;100.00;99663.46;1735361;81;21586;-79
2021/12/17 04:16:41;;;;;;;2.00;1.77;;;;;;;4.02;100.00;99663.46;1709581;82;21069;-79
2021/12/17 04:19:10;;;;;;;2.95;2.58;;;;;;;4.01;100.00;99659.66;1755857;81;20959;-80
2021/12/17 04:21:37;;;;;;;2.62;1.82;;;;;;;3.99;100.00;99662.52;1741999;81;21057;-81
2021/12/17 04:24:03;;;;;;;1.92;1.60;;;;;;;4.00;100.00;99668.67;1736167;81;21853;-82
2021/12/17 04:26:31;;;;;;;1.95;1.80;;;;;;;3.99;100.00;99663.86;1712853;81;21642;-82
2021/12/17 04:28:59;;;;;;;4.35;1.77;;;;;;;3.99;100.00;99660.38;1764050;80;21063;-82
2021/12/17 04:31:29;;;;;;;3.30;2.20;;;;;;;4.01;100.00;99671.13;1785237;80;20997;-82
2021/12/17 04:33:56;;;;;;;2.72;2.30;;;;;;;4.01;100.00;99659.16;1728314;82;21040;-81
2021/12/17 04:36:29;;;;;;;3.05;2.42;;;;;;;4.02;100.00;99659.47;1790446;80;20982;-82
2021/12/17 04:38:57;;;;;;;3.22;2.40;;;;;;;4.00;100.00;99659.36;1786437;80;20994;-81
2021/12/17 04:44:14;;;;;;;4.10;2.25;;;;;;;4.02;100.00;99659.98;1776344;80;21029;-82
2021/12/17 04:46:40;;;;;;;2.70;2.50;;;;;;;4.04;100.00;99657.91;1763848;80;21643;-84
2021/12/17 04:57:19;;;;;;;4.80;2.52;;;;;;;4.01;100.00;99649.02;1782163;80;20979;-83
2021/12/17 04:57:34;;;;;;;3.33;2.52;;;;;;;4.05;100.00;99647.06;1769916;81;21497;-82
2021/12/17 05:00:22;;;;;;;4.75;2.37;;;;;;;4.07;100.00;99660.17;1765833;80;20978;-79
2021/12/17 05:02:56;;;;;;;4.55;2.50;;;;;;;4.03;100.00;99647.77;1787347;79;21347;-79
2021/12/17 05:05:29;;;;;;;4.30;2.55;;;;;;;4.03;100.00;99647.77;1794603;79;21007;-79
2021/12/17 05:08:02;;;;;;;4.33;2.52;;;;;;;4.05;100.00;99644.91;1794891;80;21046;-79
2021/12/17 05:10:47;;;;;;;3.62;2.58;;;;;;;4.05;100.00;99650.23;1794709;79;20965;-78
2021/12/17 05:18:28;;;;;;;6.58;2.65;;;;;;;4.02;100.00;99651.48;1764386;80;21058;-77
2021/12/17 05:21:03;;;;;;;6.92;3.22;;;;;;;4.02;100.00;99643.50;1790167;80;21527;-79
2021/12/17 05:23:37;;;;;;;6.10;2.45;;;;;;;4.03;100.00;99642.45;1794010;80;21550;-77
2021/12/17 05:26:07;;;;;;;3.95;2.95;;;;;;;4.03;100.00;99645.11;1794845;79;21520;-78
2021/12/17 05:28:35;;;;;;;4.08;2.52;;;;;;;4.04;100.00;99640.61;1794750;79;21770;-79
2021/12/17 05:31:02;;;;;;;5.90;2.55;;;;;;;4.05;100.00;99648.39;1774874;80;20983;-77
2021/12/17 05:33:30;;;;;;;5.87;2.65;;;;;;;4.05;100.00;99641.74;1794426;80;21101;-77
2021/12/17 05:35:57;;;;;;;7.00;1.90;;;;;;;4.06;100.00;99643.39;1795495;80;20986;-76
2021/12/17 05:38:26;;;;;;;2.83;2.27;;;;;;;3.97;100.00;99642.48;1794835;79;21058;-78
2021/12/17 05:40:55;;;;;;;2.67;1.70;;;;;;;3.97;100.00;99642.48;1763397;81;22016;-78
2021/12/17 05:43:24;;;;;;;4.30;2.05;;;;;;;3.91;100.00;99636.15;1743717;81;20994;-81
2021/12/17 05:46:05;;;;;;;4.20;2.20;;;;;;;3.90;100.00;99635.33;1772886;80;22139;-78
2021/12/17 05:48:21;;;;;;;3.40;1.92;;;;;;;3.92;100.00;99637.28;1793468;80;20948;-80
2021/12/17 05:50:49;;;;;;;4.22;2.02;;;;;;;3.93;100.00;99636.77;1778278;80;20999;-78
2021/12/17 05:53:19;;;;;;;4.78;2.55;;;;;;;3.91;100.00;99631.66;1798348;79;21220;-80
2021/12/17 05:55:49;;;;;;;6.28;2.22;;;;;;;3.86;100.00;99634.63;1743852;82;21011;-81
2021/12/17 05:58:17;;;;;;;5.60;2.27;;;;;;;3.84;100.00;99636.66;1751373;80;20955;-78
2021/12/17 06:00:45;;;;;;;4.30;2.55;;;;;;;3.87;100.00;99637.59;1802490;79;21047;-79
2021/12/17 06:03:32;;;;;;;3.02;2.20;;;;;;;3.86;100.00;99641.27;1797104;79;21009;-76
2021/12/17 06:06:00;;;;;;;9.43;4.97;;;;;;;3.83;100.00;99631.06;1781836;79;21979;-77
2021/12/17 06:08:29;;;;;;;3.92;2.30;;;;;;;3.84;100.00;99643.31;1785312;78;21064;-76
2021/12/17 06:10:56;;;;;;;4.28;2.60;;;;;;;3.86;100.00;99639.44;1815836;78;21072;-77
2021/12/17 06:13:25;;;;;;;4.90;3.17;;;;;;;3.88;100.00;99646.70;1807431;79;20990;-76
2021/12/17 06:15:55;;;;;;;3.15;2.60;;;;;;;3.89;100.00;99648.32;1779823;79;21609;-79
2021/12/17 06:18:27;;;;;;;5.12;2.15;;;;;;;3.86;100.00;99646.08;1812159;78;20963;-76
2021/12/17 06:20:53;;;;;;;4.37;2.50;;;;;;;3.86;100.00;99649.26;1821199;78;21022;-77
2021/12/17 06:23:22;;;;;;;5.60;2.65;;;;;;;3.86;100.00;99650.59;1807453;79;21018;-78
2021/12/17 06:25:53;;;;;;;5.25;2.33;;;;;;;3.87;100.00;99645.58;1804909;79;21017;-80
2021/12/17 06:28:20;;;;;;;3.52;2.22;;;;;;;3.87;100.00;99643.73;1757793;80;21541;-79
2021/12/17 06:30:47;;;;;;;4.25;2.80;;;;;;;3.87;100.00;99646.91;1764382;79;21127;-78
2021/12/17 06:33:19;;;;;;;4.55;2.42;;;;;;;3.86;100.00;99660.72;1805273;79;21013;-78
2021/12/17 06:35:49;;;;;;;5.42;3.30;;;;;;;3.83;100.00;99643.85;1807537;79;20970;-80
2021/12/17 06:38:18;;;;;;;6.35;3.83;;;;;;;3.85;100.00;99647.61;1794670;78;20903;-83
2021/12/17 06:40:48;;;;;;;9.23;3.55;;;;;;;3.85;100.00;99643.11;1811543;78;20963;-75
2021/12/17 06:43:16;;;;;;;7.75;2.50;;;;;;;3.86;100.00;99646.59;1783342;79;21017;-81
2021/12/17 06:48:14;;;;;;;2.98;2.33;;;;;;;3.88;100.00;99638.73;1811244;79;20907;-81
2021/12/17 06:59:46;;;;;;;5.67;3.87;;;;;;;3.87;100.00;99641.08;1783078;79;20896;-79
2021/12/17 07:11:22;;;;;;;3.83;2.52;;;;;;;3.89;100.00;99673.59;1749152;81;21060;-80
2021/12/17 07:33:11;;;;;;;3.80;2.00;;;;;;;3.87;100.00;99655.70;1724826;82;21086;-79
2021/12/17 07:40:49;;;;;;;5.05;2.37;;;;;;;3.87;100.00;99656.22;1738100;81;21048;-80
2021/12/17 07:43:26;;;;;;;2.37;1.85;;;;;;;3.87;100.00;99656.22;1771700;81;20998;-79
2021/12/17 07:45:49;;;;;;;4.90;2.58;;;;;;;3.88;100.00;99652.03;1740204;81;20978;-78
2021/12/17 07:48:22;;;;;;;6.08;2.55;;;;;;;3.89;100.00;99651.48;1770965;81;20943;-80
2021/12/17 07:51:36;;;;;;;4.15;2.10;;;;;;;3.91;100.00;99656.10;1762690;80;21520;-79
2021/12/17 07:54:07;;;;;;;1.70;1.60;;;;;;;3.93;100.00;99652.20;1771783;80;21022;-80
2021/12/17 07:56:37;;;;;;;2.45;2.00;;;;;;;3.93;100.00;99660.72;1771513;81;20986;-82
2021/12/17 07:59:10;;;;;;;5.55;1.77;;;;;;;3.94;100.00;99650.36;1743879;80;21026;-79
2021/12/17 08:01:41;;;;;;;4.15;1.85;;;;;;;3.99;100.00;99659.04;1723469;81;20980;-76
2021/12/17 08:04:08;;;;;;;3.92;2.22;;;;;;;4.03;100.00;99651.77;1800046;78;21565;-75
2021/12/17 08:06:41;;;;;;;5.65;2.83;;;;;;;4.01;100.00;99649.84;1797053;78;21055;-78
2021/12/17 08:09:20;;;;;;;8.23;4.65;;;;;;;4.00;100.00;99639.40;1805350;79;21005;-77
2021/12/17 08:11:54;;;;;;;9.70;5.30;;;;;;;3.98;100.00;99650.78;1780893;79;21113;-81
2021/12/17 08:14:21;;;;;;;6.30;4.90;;;;;;;3.97;100.00;99648.63;1809717;78;20996;-82
2021/12/17 08:25:08;;;;;;;3.45;2.65;;;;;;;3.97;100.00;99641.98;1793862;78;21143;-78
2021/12/17 08:27:47;;;;;;;3.40;3.10;;;;;;;3.94;100.00;99641.86;1776149;80;21145;-81
2021/12/17 08:30:22;;;;;;;5.25;4.58;;;;;;;3.91;100.00;99650.78;1797200;79;21840;-76
2021/12/17 08:32:43;;;;;;;2.70;2.10;;;;;;;3.86;100.00;99644.75;1801203;79;21511;-78
2021/12/17 08:35:11;;;;;;;3.92;3.30;;;;;;;3.84;100.00;99653.95;1780286;79;21116;-80
2021/12/17 08:37:39;;;;;;;7.20;4.33;;;;;;;3.85;100.00;99655.09;1773150;80;21528;-79
2021/12/17 08:40:07;;;;;;;4.75;3.52;;;;;;;3.86;100.00;99649.26;1787015;79;21133;-76
2021/12/17 08:42:35;;;;;;;5.28;3.60;;;;;;;3.83;100.00;99650.50;1779456;79;21328;-81
2021/12/17 08:45:08;;;;;;;4.33;3.27;;;;;;;3.81;100.00;99643.73;1801654;78;20978;-84
2021/12/17 08:47:43;;;;;;;5.10;3.83;;;;;;;3.80;100.00;99647.41;1777727;79;21013;-83
2021/12/17 08:50:12;;;;;;;5.42;1.90;;;;;;;3.81;100.00;99639.23;1752490;79;21086;-81
2021/12/17 08:52:41;;;;;;;2.33;1.90;;;;;;;3.83;100.00;99646.52;1804322;79;21559;-76
2021/12/17 08:55:10;;;;;;;6.05;2.70;;;;;;;3.85;100.00;99645.77;1804947;78;21504;-74
2021/12/17 08:57:39;;;;;;;3.40;2.27;;;;;;;3.85;100.00;99639.12;1771611;79;21059;-75
2021/12/17 09:00:08;;;;;;;5.10;2.37;;;;;;;3.79;100.00;99639.95;1783245;78;21082;-76
2021/12/17 09:02:47;;;;;;;2.95;2.15;;;;;;;3.80;100.00;99640.25;1802611;78;21528;-79
2021/12/17 09:05:18;;;;;;;2.33;2.08;;;;;;;3.75;100.00;99644.55;1801253;79;21019;-82
2021/12/17 09:07:47;;;;;;;2.22;1.72;;;;;;;3.72;100.00;99634.34;1800633;78;21138;-77
2021/12/17 09:10:20;;;;;;;6.05;3.58;;;;;;;3.70;100.00;99624.41;1796899;79;20961;-77
2021/12/17 09:12:43;;;;;;;5.05;2.40;;;;;;;3.75;100.00;99644.55;1810372;78;21576;-76
2021/12/17 09:15:10;;;;;;;3.70;2.85;;;;;;;3.76;100.00;99628.41;1773393;78;21532;-76
2021/12/17 09:17:52;;;;;;;3.30;2.72;;;;;;;3.68;100.00;99624.64;1796007;78;20940;-76
2021/12/17 09:20:22;;;;;;;3.60;2.05;;;;;;;3.66;100.00;99630.66;1809907;78;21215;-77
2021/12/17 09:22:51;;;;;;;2.08;1.92;;;;;;;3.64;100.00;99618.61;1777957;79;21049;-78
2021/12/17 09:25:19;;;;;;;3.75;3.37;;;;;;;3.67;100.00;99622.17;1794480;79;20903;-79
2021/12/17 09:27:53;;;;;;;5.55;3.05;;;;;;;3.70;100.00;99615.92;1779178;79;21030;-82
2021/12/17 09:30:39;;;;;;;2.42;2.22;;;;;;;3.72;100.00;99614.39;1805117;79;20959;-81
2021/12/17 09:33:07;;;;;;;4.17;3.17;;;;;;;3.73;100.00;99617.37;1814223;78;21132;-81
2021/12/17 09:35:34;;;;;;;4.37;3.92;;;;;;;3.72;100.00;99615.22;1796739;78;21105;-81
2021/12/17 09:38:01;;;;;;;7.75;4.42;;;;;;;3.71;100.00;99616.74;1787612;80;20980;-78
2021/12/17 09:40:28;;;;;;;6.60;3.77;;;;;;;3.71;100.00;99618.08;1793798;78;20927;-79
2021/12/17 09:42:54;;;;;;;5.42;3.95;;;;;;;3.74;100.00;99613.15;1795910;78;21036;-81
2021/12/17 09:45:22;;;;;;;3.40;3.10;;;;;;;3.74;100.00;99613.15;1793758;78;21023;-80
2021/12/17 09:47:48;;;;;;;5.20;4.00;;;;;;;3.74;100.00;99591.87;1749813;80;21533;-79
2021/12/17 09:50:18;;;;;;;13.08;7.33;;;;;;;3.77;100.00;99599.45;1773318;80;21053;-79
2021/12/17 09:52:44;;;;;;;7.67;4.67;;;;;;;3.78;100.00;99603.75;1773468;80;21028;-78
2021/12/17 09:55:11;;;;;;;9.35;5.40;;;;;;;3.74;100.00;99585.77;1761569;79;21403;-78
2021/12/17 09:57:39;;;;;;;10.70;5.33;;;;;;;3.78;100.00;99599.77;1780082;79;21079;-78
2021/12/17 10:00:13;;;;;;;13.90;7.03;;;;;;;3.81;100.00;99599.84;1751926;79;21001;-77
2021/12/17 10:02:43;;;;;;;6.08;3.35;;;;;;;3.83;100.00;99598.63;1777507;79;21051;-80
2021/12/17 10:05:19;;;;;;;8.98;5.37;;;;;;;3.84;100.00;99586.12;1800356;78;21569;-79
2021/12/17 10:08:07;;;;;;;8.03;5.58;;;;;;;3.84;100.00;99586.12;1804375;79;20895;-82
2021/12/17 10:10:42;;;;;;;10.28;5.80;;;;;;;3.87;100.00;99591.05;1788934;79;20989;-82
2021/12/17 10:13:14;;;;;;;10.20;6.17;;;;;;;3.90;100.00;99595.94;1800425;79;20971;-80
2021/12/17 10:15:46;;;;;;;7.42;5.05;;;;;;;3.90;100.00;99595.94;1812094;78;20972;-77
2021/12/17 10:18:13;;;;;;;20.25;11.85;;;;;;;3.90;100.00;99583.45;1784530;79;21529;-77
2021/12/17 10:20:58;;;;;;;11.65;5.10;;;;;;;3.92;100.00;99591.23;1804831;79;20988;-79
2021/12/17 10:23:28;;;;;;;9.40;4.80;;;;;;;3.92;100.00;99592.56;1805270;79;21105;-82
2021/12/17 10:25:59;;;;;;;7.70;3.95;;;;;;;3.97;100.00;99590.60;1779647;79;21587;-83
2021/12/17 10:28:27;;;;;;;5.17;3.50;;;;;;;4.01;100.00;99587.83;1752705;79;21549;-77
2021/12/17 10:30:55;;;;;;;5.15;3.77;;;;;;;4.01;100.00;99587.83;1780169;79;21063;-77
2021/12/17 10:33:24;;;;;;;4.47;3.40;;;;;;;4.01;100.00;99589.16;1772735;79;21521;-76
2021/12/17 10:35:54;;;;;;;6.35;3.65;;;;;;;4.04;100.00;99583.40;1784766;78;21835;-77
2021/12/17 10:38:26;;;;;;;9.85;5.33;;;;;;;4.11;100.00;99598.34;1801751;79;21030;-78
2021/12/17 10:41:05;;;;;;;6.05;4.20;;;;;;;4.10;100.00;99577.25;1804345;78;22208;-78
2021/12/17 10:43:38;;;;;;;4.15;3.50;;;;;;;4.08;100.00;99583.28;1797657;79;20961;-79
2021/12/17 10:46:29;;;;;;;6.60;3.70;;;;;;;4.09;100.00;99575.09;1755880;79;21055;-77
2021/12/17 10:49:17;;;;;;;5.15;4.67;;;;;;;4.10;100.00;99566.59;1774562;79;21180;-79
2021/12/17 10:51:43;;;;;;;7.17;2.65;;;;;;;4.10;100.00;99569.27;1789293;78;20983;-83
2021/12/17 10:54:15;;;;;;;7.95;5.60;;;;;;;4.09;100.00;99573.77;1786870;78;21093;-85
2021/12/17 10:56:54;;;;;;;6.25;3.62;;;;;;;4.07;99.90;99567.03;1809032;78;21007;-80
2021/12/17 10:59:25;;;;;;;7.12;4.20;;;;;;;4.03;99.91;99581.79;1797938;79;21522;-86
2021/12/17 11:02:06;;;;;;;6.50;4.20;;;;;;;4.00;99.80;99574.21;1802077;78;21104;-83
2021/12/17 11:04:37;;;;;;;15.00;9.70;;;;;;;3.98;99.91;99579.73;1797361;78;20982;-78
2021/12/17 11:07:17;;;;;;;14.40;5.30;;;;;;;3.99;100.00;99574.72;1765740;79;21312;-80
2021/12/17 11:10:01;;;;;;;4.33;3.17;;;;;;;4.02;100.00;99576.98;1787697;79;21037;-81
2021/12/17 11:12:47;;;;;;;2.75;2.30;;;;;;;4.01;99.68;99578.00;1803204;78;20999;-76
2021/12/17 11:15:26;;;;;;;7.97;3.90;;;;;;;4.02;99.47;99568.17;1801869;79;21382;-77
2021/12/17 11:17:56;;;;;;;8.83;4.35;;;;;;;4.01;99.33;99570.02;1778679;79;21398;-76
2021/12/17 11:20:32;;;;;;;5.50;3.02;;;;;;;4.02;98.91;99570.33;1802128;79;21583;-75
2021/12/17 11:23:07;;;;;;;3.58;2.65;;;;;;;4.07;98.75;99576.34;1801303;79;21022;-81
2021/12/17 11:25:38;;;;;;;8.43;3.30;;;;;;;4.08;98.36;99567.31;1804064;79;21598;-84
2021/12/17 11:28:07;;;;;;;6.35;2.10;;;;;;;4.09;98.15;99567.63;1803900;79;21322;-82
2021/12/17 11:30:36;;;;;;;5.83;3.08;;;;;;;4.09;98.23;99568.44;1813336;78;20990;-82
2021/12/17 11:33:04;;;;;;;4.75;2.62;;;;;;;4.11;98.25;99561.08;1775911;79;21041;-79
2021/12/17 11:35:37;;;;;;;7.35;3.05;;;;;;;4.14;98.17;99559.31;1804660;79;21055;-80
2021/12/17 11:38:16;;;;;;;;;;;;;;;4.16;98.13;99555.94;1790853;80;21003;-78
2021/12/17 11:40:55;;;;;;;4.17;3.15;;;;;;;4.21;98.07;99560.63;1802231;79;20130;-75
2021/12/17 11:43:51;;;;;;;7.15;3.77;;;;;;;4.21;97.55;99566.77;1779090;79;20967;-76
2021/12/17 11:46:31;;;;;;;6.20;3.30;;;;;;;4.20;97.24;99565.13;1778291;79;33595;-78
2021/12/17 11:49:04;;;;;;;2.80;2.47;;;;;;;4.20;96.97;99568.30;1780899;78;20994;-81
2021/12/17 11:51:33;;;;;;;6.95;2.25;;;;;;;4.12;95.68;99572.55;1789171;78;21037;-74
2021/12/17 11:54:17;;;;;;;5.42;2.65;;;;;;;4.11;96.10;99572.23;1797537;79;21016;-75
2021/12/17 11:56:56;;;;;;;2.90;2.00;;;;;;;4.08;95.79;99567.31;1791720;79;21014;-80
2021/12/17 11:59:35;;;;;;;6.90;3.87;;;;;;;4.06;95.56;99581.36;1803072;79;21067;-82
2021/12/17 12:02:15;;;;;;;3.45;2.83;;;;;;;4.03;95.59;99583.91;1758536;79;21562;-78
2021/12/17 12:05:01;;;;;;;5.03;3.08;;;;;;;4.00;95.49;99571.55;1775225;80;21073;-78
2021/12/17 12:07:33;;;;;;;3.22;2.30;;;;;;;3.93;95.31;99577.70;1791180;79;22365;-77
2021/12/17 12:10:21;;;;;;;2.75;2.52;;;;;;;3.92;95.52;99585.41;1794732;80;21499;-77
2021/12/17 12:12:53;;;;;;;2.35;2.12;;;;;;;3.97;95.53;99587.44;1783015;80;21059;-76
2021/12/17 12:15:27;;;;;;;4.08;2.67;;;;;;;4.00;95.57;99580.86;1796228;79;21026;-79
2021/12/17 12:18:11;;;;;;;4.17;2.90;;;;;;;3.94;95.17;99571.87;1795073;80;21040;-87
2021/12/17 12:20:51;;;;;;;7.30;4.12;;;;;;;3.91;95.40;99584.27;1719741;80;22325;-90
2021/12/17 12:23:32;;;;;;;8.28;5.60;;;;;;;3.89;95.43;99574.34;1773017;80;21538;-85
2021/12/17 12:26:08;;;;;;;7.22;4.45;;;;;;;3.93;95.53;99580.91;1794370;79;20962;-82
2021/12/17 12:28:58;;;;;;;14.78;7.20;;;;;;;3.89;95.49;99569.02;1795146;80;20999;-74
2021/12/17 12:31:35;;;;;;;10.13;6.35;;;;;;;3.90;95.52;99575.98;1804456;78;20966;-78
2021/12/17 12:34:08;;;;;;;9.10;5.00;;;;;;;3.89;95.58;99575.16;1791129;80;22195;-73
2021/12/17 12:37:15;;;;;;;6.80;4.40;;;;;;;3.89;95.33;99587.64;1789304;80;21206;-78
2021/12/17 12:39:57;;;;;;;8.58;6.28;;;;;;;3.85;95.46;99587.25;1794646;80;21580;-72
2021/12/17 12:42:30;;;;;;;8.20;4.62;;;;;;;3.85;95.46;99587.25;1794594;79;21028;-81
2021/12/17 12:45:07;;;;;;;11.22;3.92;;;;;;;3.85;95.29;99589.91;1771132;80;21044;-82
2021/12/17 12:47:45;;;;;;;5.03;3.95;;;;;;;3.83;95.14;99589.32;1766252;80;21653;-80
2021/12/17 12:50:20;;;;;;;5.12;4.72;;;;;;;3.82;94.85;99590.34;1762411;81;21573;-90
2021/12/17 12:53:00;;;;;;;3.00;2.20;;;;;;;3.81;94.36;99587.88;1795623;79;20923;-88
2021/12/17 12:55:43;;;;;;;3.77;3.10;;;;;;;3.82;94.18;99592.18;1796442;79;20990;-88
2021/12/17 12:58:17;;;;;;;7.12;3.92;;;;;;;3.84;93.78;99600.75;1795579;79;21126;-84
2021/12/17 13:00:51;;;;;;;1.70;1.47;;;;;;;3.82;93.37;99596.98;1798767;79;21155;-80
2021/12/17 13:03:27;;;;;;;1.90;1.80;;;;;;;3.78;92.59;99604.27;1795054;80;20932;-89
2021/12/17 13:06:01;;;;;;;4.40;2.65;;;;;;;3.71;92.51;99604.27;1795525;79;20999;-87
2021/12/17 13:08:35;;;;;;;3.25;2.30;;;;;;;3.71;92.75;99598.95;1748746;80;21048;-86
2021/12/17 13:11:05;;;;;;;4.30;2.98;;;;;;;3.70;92.71;99602.63;1795435;79;20914;-82
2021/12/17 13:13:43;;;;;;;4.17;2.87;;;;;;;3.69;92.65;99601.02;1795122;80;21156;-77
2021/12/17 13:16:38;;;;;;;4.42;3.12;;;;;;;3.71;92.71;99611.42;1794145;79;21026;-79
2021/12/17 13:21:59;;;;;;;5.25;3.42;;;;;;;3.68;92.89;99617.98;1759711;80;21018;-82
2021/12/17 13:24:21;;;;;;;10.65;5.53;;;;;;;3.68;93.12;99609.19;1752077;80;21054;-77
2021/12/17 13:27:09;;;;;;;4.53;2.70;;;;;;;3.68;93.12;99609.19;1795635;79;21690;-82
2021/12/17 13:29:34;;;;;;;9.55;5.97;;;;;;;3.66;92.86;99607.23;1790688;80;20951;-76
2021/12/17 13:32:14;;;;;;;7.97;5.95;;;;;;;3.62;92.89;99613.48;1766757;80;20902;-89
2021/12/17 13:34:50;;;;;;;24.20;12.50;;;;;;;3.59;93.23;99615.24;1794118;80;20878;-85
2021/12/17 13:37:30;;;;;;;14.33;7.67;;;;;;;3.47;93.67;99627.00;1798722;79;21000;-84
2021/12/17 13:40:08;;;;;;;16.48;9.53;;;;;;;3.47;93.67;99627.00;1795612;79;21137;-88
2021/12/17 13:42:45;;;;;;;4.70;3.72;;;;;;;3.43;94.04;99627.62;1793389;80;21042;-90
2021/12/17 13:45:20;;;;;;;3.80;2.67;;;;;;;3.35;94.21;99631.31;1790119;80;21031;-90
2021/12/17 13:47:54;;;;;;;1.57;1.47;;;;;;;3.35;94.21;99631.31;1762741;80;21031;-91
2021/12/17 13:50:30;;;;;;;4.15;2.98;;;;;;;3.28;94.21;99624.34;1791739;79;20961;-88
2021/12/17 13:53:18;;;;;;;3.80;3.27;;;;;;;3.20;94.57;99624.05;1793183;79;21861;-78
2021/12/17 13:55:50;;;;;;;6.28;5.10;;;;;;;3.20;94.57;99624.05;1792401;79;21039;-74
2021/12/17 13:58:24;;;;;;;3.30;3.05;;;;;;;3.15;94.75;99634.97;1773431;80;21000;-74
2021/12/17 14:00:54;;;;;;;5.62;4.03;;;;;;;3.10;94.92;99632.92;1779132;80;21143;-73
2021/12/17 14:03:30;;;;;;;7.75;5.65;;;;;;;2.93;95.12;99624.52;1740974;82;21234;-72
2021/12/17 14:06:10;;;;;;;3.72;2.95;;;;;;;2.87;95.48;99635.14;1688941;83;21157;-73
2021/12/17 14:08:29;;;;;;;4.87;4.03;;;;;;;2.82;95.73;99630.94;1777672;79;20970;-81
2021/12/17 14:10:56;;;;;;;4.87;3.52;;;;;;;2.81;96.08;99632.78;1797906;79;21524;-83
2021/12/17 14:13:29;;;;;;;4.10;3.37;;;;;;;2.78;96.22;99642.99;1818809;78;21021;-79
2021/12/17 14:15:59;;;;;;;5.70;3.67;;;;;;;2.74;96.29;99639.08;1819309;78;21019;-83
2021/12/17 14:18:27;;;;;;;4.00;3.20;;;;;;;2.70;96.42;99635.19;1795859;78;21067;-81
2021/12/17 14:21:01;;;;;;;6.10;4.30;;;;;;;2.66;96.63;99636.11;1775215;79;20923;-78
2021/12/17 14:23:29;;;;;;;3.75;3.40;;;;;;;2.63;96.86;99630.70;1793687;78;21535;-78
2021/12/17 14:26:01;;;;;;;4.05;3.20;;;;;;;2.63;97.01;99629.38;1777713;79;21038;-85
2021/12/17 14:28:37;;;;;;;6.35;4.53;;;;;;;2.62;97.15;99637.53;1778342;79;21097;-80
2021/12/17 14:31:14;;;;;;;3.40;3.10;;;;;;;2.61;97.20;99635.88;1795709;79;21079;-79
2021/12/17 14:33:57;;;;;;;3.60;2.70;;;;;;;2.58;97.04;99635.79;1785390;78;20932;-74